Time;durP1;ratioP1;P1;durP2;ratioP2;P2;SDS_P1;SDS_P2;PMS_P1;PMS_P2;Temp;Humidity;BMP_temperature;BMP_pressure;BME280_temperature;BME280_humidity;BME280_pressure;Samples;Min_cycle;Max_cycle;Signal;HPM_P1;HPM_P2
2023/07/24 00:01:45;;;;;;;4.28;1.50;;;;;;;17.29;91.65;99794.84;4843491;29;20188;-81
2023/07/24 00:04:48;;;;;;;3.15;1.70;;;;;;;17.39;90.62;99791.25;4853182;29;20049;-81
2023/07/24 00:07:54;;;;;;;3.72;1.70;;;;;;;17.47;89.31;99787.03;4844259;29;20446;-81
2023/07/24 00:10:58;;;;;;;3.08;1.75;;;;;;;17.30;90.29;99781.50;4843808;29;20103;-81
2023/07/24 00:14:01;;;;;;;3.75;1.60;;;;;;;17.09;91.50;99789.59;4844133;29;20606;-81
2023/07/24 00:17:05;;;;;;;2.47;1.50;;;;;;;17.18;91.45;99788.75;4844063;29;20093;-81
2023/07/24 00:20:09;;;;;;;5.50;1.70;;;;;;;17.15;91.36;99785.56;4843697;29;20049;-81
2023/07/24 00:23:12;;;;;;;3.55;1.70;;;;;;;17.08;91.91;99781.81;4843603;29;20049;-81
2023/07/24 00:26:16;;;;;;;3.47;1.92;;;;;;;17.03;92.10;99778.75;4843558;29;20465;-80
2023/07/24 00:29:19;;;;;;;5.78;1.80;;;;;;;16.98;92.80;99775.72;4843772;29;20057;-80
2023/07/24 00:32:22;;;;;;;3.47;1.52;;;;;;;16.96;93.06;99786.41;4843873;29;20122;-80
2023/07/24 00:35:26;;;;;;;3.13;1.55;;;;;;;16.93;93.70;99784.88;4842895;29;20049;-80
2023/07/24 00:38:29;;;;;;;4.20;1.70;;;;;;;16.95;93.43;99774.19;4843736;29;20053;-80
2023/07/24 00:41:32;;;;;;;3.67;1.80;;;;;;;17.04;92.66;99770.69;4843747;29;20092;-80
2023/07/24 00:44:37;;;;;;;5.53;1.80;;;;;;;16.91;93.73;99765.72;4843398;29;20502;-80
2023/07/24 00:47:42;;;;;;;4.80;1.98;;;;;;;16.87;94.38;99763.47;4843076;29;20107;-80
2023/07/24 00:50:45;;;;;;;3.10;1.70;;;;;;;16.90;94.20;99757.91;4853278;29;20518;-80
2023/07/24 00:53:48;;;;;;;2.92;1.50;;;;;;;16.88;94.37;99750.13;4842607;29;20526;-79
2023/07/24 00:56:52;;;;;;;8.13;1.83;;;;;;;16.86;94.80;99746.78;4843408;29;20123;-79
2023/07/24 00:59:55;;;;;;;2.92;1.55;;;;;;;16.87;95.28;99742.34;4842490;29;20045;-79
2023/07/24 01:03:00;;;;;;;2.83;1.63;;;;;;;17.01;94.57;99747.22;4843321;29;20175;-79
2023/07/24 01:06:04;;;;;;;2.97;1.30;;;;;;;17.13;93.33;99743.44;4852752;29;20040;-79
2023/07/24 01:09:08;;;;;;;3.10;1.88;;;;;;;17.04;93.94;99743.44;4843252;29;20045;-80
2023/07/24 01:12:32;;;;;;;5.20;1.95;;;;;;;16.93;94.78;99745.25;4841798;29;20526;-80
2023/07/24 01:15:48;;;;;;;2.85;1.65;;;;;;;16.92;94.67;99748.88;4843001;29;20075;-80
2023/07/24 01:18:56;;;;;;;4.05;1.60;;;;;;;16.99;94.39;99735.94;4842934;29;20145;-79
2023/07/24 01:22:31;;;;;;;4.20;1.58;;;;;;;17.07;93.87;99719.38;4843039;29;20049;-80
2023/07/24 01:25:37;;;;;;;3.08;1.65;;;;;;;17.14;93.49;99723.16;4842265;29;20048;-80
2023/07/24 01:28:41;;;;;;;2.50;1.45;;;;;;;17.15;93.13;99709.78;4843050;29;20117;-80
2023/07/24 01:31:44;;;;;;;3.60;1.55;;;;;;;17.05;93.87;99703.69;4842836;29;20049;-80
2023/07/24 01:34:51;;;;;;;2.75;1.50;;;;;;;17.09;93.66;99691.03;4841895;29;20049;-79
2023/07/24 01:37:56;;;;;;;2.78;1.50;;;;;;;17.16;93.66;99684.19;4841984;29;20099;-79
2023/07/24 01:41:02;;;;;;;4.40;1.67;;;;;;;17.20;93.34;99690.88;4831378;29;20458;-80
2023/07/24 01:44:05;;;;;;;2.60;1.67;;;;;;;17.11;93.64;99702.31;4842381;29;20064;-80
2023/07/24 01:47:08;;;;;;;2.67;1.80;;;;;;;17.15;93.36;99701.03;4842864;29;20404;-80
2023/07/24 01:50:12;;;;;;;4.18;1.58;;;;;;;17.11;93.50;99694.38;4841328;29;20053;-81
2023/07/24 01:53:15;;;;;;;7.13;1.50;;;;;;;16.99;94.27;99693.69;4842566;29;20408;-82
2023/07/24 01:56:18;;;;;;;2.78;1.48;;;;;;;17.00;95.20;99695.34;4841620;29;20076;-81
2023/07/24 01:59:22;;;;;;;2.95;1.50;;;;;;;17.08;93.94;99692.00;4830708;29;20086;-81
2023/07/24 02:02:25;;;;;;;4.45;1.55;;;;;;;17.06;94.10;99686.03;4841232;29;20050;-81
2023/07/24 02:05:29;;;;;;;2.55;1.42;;;;;;;17.08;94.39;99684.91;4841928;29;20048;-82
2023/07/24 02:08:32;;;;;;;4.50;1.35;;;;;;;17.03;94.42;99699.53;4841425;29;20054;-82
2023/07/24 02:11:36;;;;;;;2.83;1.60;;;;;;;16.89;95.13;99704.28;4842198;29;20048;-81
2023/07/24 02:14:39;;;;;;;3.95;1.90;;;;;;;17.00;94.54;99699.81;4841588;29;20419;-81
2023/07/24 02:17:49;;;;;;;2.60;1.70;;;;;;;16.96;94.93;99691.34;4842130;29;20527;-81
2023/07/24 02:20:54;;;;;;;2.53;1.40;;;;;;;16.89;95.83;99688.44;4841291;29;20148;-81
2023/07/24 02:23:57;;;;;;;2.80;1.70;;;;;;;16.93;95.86;99683.69;4841417;29;20045;-81
2023/07/24 02:27:01;;;;;;;2.40;1.20;;;;;;;17.06;95.63;99678.94;4842048;29;20053;-81
2023/07/24 02:30:04;;;;;;;4.07;1.75;;;;;;;17.02;95.37;99672.28;4842140;29;20411;-81
2023/07/24 02:33:07;;;;;;;5.53;2.00;;;;;;;16.91;96.13;99678.56;4841194;29;20108;-81
2023/07/24 02:36:11;;;;;;;3.78;1.65;;;;;;;16.94;96.00;99680.06;4841950;29;20052;-81
2023/07/24 02:39:15;;;;;;;3.30;1.75;;;;;;;16.89;96.35;99675.22;4840939;29;20049;-81
2023/07/24 02:42:18;;;;;;;4.47;1.52;;;;;;;16.94;96.51;99674.78;4841050;29;20126;-81
2023/07/24 02:45:21;;;;;;;7.15;1.88;;;;;;;17.00;95.54;99670.75;4841435;29;20403;-80
2023/07/24 02:48:25;;;;;;;3.55;2.10;;;;;;;16.93;96.27;99662.56;4840894;29;20414;-80
2023/07/24 02:51:29;;;;;;;3.55;2.08;;;;;;;16.94;96.14;99665.09;4830669;29;20061;-81
2023/07/24 02:54:32;;;;;;;3.45;1.88;;;;;;;16.89;96.51;99667.31;4840565;29;20096;-81
2023/07/24 02:57:35;;;;;;;3.88;1.48;;;;;;;16.90;96.42;99657.56;4841209;29;20060;-80
2023/07/24 03:00:40;;;;;;;6.25;1.73;;;;;;;16.89;96.88;99658.56;4840982;29;20056;-80
2023/07/24 03:03:43;;;;;;;4.30;1.90;;;;;;;16.86;96.73;99662.31;4840942;29;20044;-81
2023/07/24 03:06:47;;;;;;;3.47;1.70;;;;;;;16.91;96.34;99646.88;4840950;29;20105;-80
2023/07/24 03:09:51;;;;;;;4.07;1.95;;;;;;;16.83;96.83;99633.53;4840732;29;20211;-81
2023/07/24 03:12:53;;;;;;;3.17;1.77;;;;;;;16.80;97.14;99628.53;4829582;29;20112;-81
2023/07/24 03:15:58;;;;;;;5.63;2.53;;;;;;;16.83;96.73;99615.06;4840973;29;20045;-80
2023/07/24 03:19:01;;;;;;;3.25;1.60;;;;;;;16.73;97.18;99614.22;4841565;29;20079;-81
2023/07/24 03:22:04;;;;;;;2.92;1.63;;;;;;;16.79;96.79;99611.06;4841299;29;20482;-81
2023/07/24 03:25:16;;;;;;;3.53;1.52;;;;;;;16.80;96.77;99610.06;4840414;29;20041;-80
2023/07/24 03:28:19;;;;;;;2.90;1.90;;;;;;;16.71;97.09;99626.72;4840606;29;20478;-80
2023/07/24 03:31:23;;;;;;;3.35;1.70;;;;;;;16.74;96.69;99606.16;4841140;29;20056;-79
2023/07/24 03:34:26;;;;;;;6.00;1.77;;;;;;;16.73;96.43;99603.66;4840458;29;20045;-80
2023/07/24 03:37:30;;;;;;;3.25;1.80;;;;;;;16.64;96.97;99599.22;4843636;29;20088;-80
2023/07/24 03:40:33;;;;;;;2.65;1.27;;;;;;;16.60;96.77;99603.97;4844227;29;20049;-81
2023/07/24 03:43:36;;;;;;;2.95;1.40;;;;;;;16.63;95.01;99600.22;4830857;29;20065;-81
2023/07/24 03:46:39;;;;;;;8.80;2.03;;;;;;;16.65;93.98;99590.34;4824358;29;20057;-80
2023/07/24 03:49:43;;;;;;;4.05;1.80;;;;;;;16.59;95.03;99577.69;4824921;29;20045;-81
2023/07/24 03:52:46;;;;;;;5.65;1.90;;;;;;;16.45;95.89;99574.53;4824230;29;20080;-81
2023/07/24 03:55:50;;;;;;;3.35;1.55;;;;;;;16.45;95.92;99563.16;4824552;29;20062;-80
2023/07/24 03:58:54;;;;;;;3.83;1.73;;;;;;;16.41;96.11;99565.25;4824364;29;20084;-80
2023/07/24 04:01:58;;;;;;;3.17;1.85;;;;;;;16.50;95.58;99558.28;4813443;29;20125;-80
2023/07/24 04:05:03;;;;;;;5.38;1.80;;;;;;;16.59;96.02;99559.22;4813586;29;20195;-80
2023/07/24 04:08:06;;;;;;;3.65;1.73;;;;;;;16.65;95.24;99558.66;4824721;29;20045;-81
2023/07/24 04:11:09;;;;;;;3.72;1.73;;;;;;;16.67;93.91;99559.34;4824667;29;20140;-78
2023/07/24 04:14:15;;;;;;;2.80;1.77;;;;;;;16.51;95.39;99571.34;4822585;29;20156;-81
2023/07/24 04:17:21;;;;;;;4.00;2.05;;;;;;;16.58;95.21;99576.88;4823345;29;20133;-78
2023/07/24 04:20:25;;;;;;;3.30;2.10;;;;;;;16.67;94.01;99583.13;4824052;29;20076;-79
2023/07/24 04:23:28;;;;;;;3.75;2.50;;;;;;;16.62;94.38;99585.34;4824374;29;20111;-78
2023/07/24 04:26:57;;;;;;;3.83;2.10;;;;;;;16.56;95.88;99592.03;4824667;29;20569;-86
2023/07/24 04:30:00;;;;;;;3.33;2.00;;;;;;;16.63;96.10;99593.13;4824788;29;20049;-84
2023/07/24 04:33:08;;;;;;;2.97;1.65;;;;;;;16.69;95.40;99589.91;4823281;29;20096;-80
2023/07/24 04:36:11;;;;;;;3.05;1.60;;;;;;;16.63;96.06;99587.03;4824138;29;20085;-77
2023/07/24 04:39:14;;;;;;;2.95;1.73;;;;;;;16.70;95.00;99591.56;4824007;29;20576;-79
2023/07/24 04:42:17;;;;;;;3.70;1.92;;;;;;;16.70;95.43;99593.38;4824038;29;20483;-78
2023/07/24 04:50:37;;;;;;;4.43;1.70;;;;;;;16.69;96.08;99607.56;4824259;29;20535;-79
2023/07/24 04:53:40;;;;;;;5.18;2.00;;;;;;;16.65;96.46;99608.81;4823925;29;20072;-78
2023/07/24 04:56:43;;;;;;;4.93;1.67;;;;;;;16.64;96.89;99615.06;4805788;29;20085;-79
2023/07/24 04:59:47;;;;;;;4.07;2.00;;;;;;;16.66;96.85;99621.88;4804596;29;20435;-79
2023/07/24 05:02:51;;;;;;;2.97;1.67;;;;;;;16.72;96.41;99639.78;4805512;29;20111;-79
2023/07/24 05:05:55;;;;;;;3.38;1.98;;;;;;;16.74;96.74;99634.34;4805889;29;20045;-79
2023/07/24 05:08:58;;;;;;;3.53;1.98;;;;;;;16.85;96.22;99634.25;4805566;29;20448;-78
2023/07/24 05:12:02;;;;;;;3.45;1.95;;;;;;;16.65;98.44;99643.94;4805517;29;20058;-78
2023/07/24 05:15:07;;;;;;;4.13;1.92;;;;;;;16.43;100.00;99629.28;4804935;29;20054;-77
2023/07/24 05:18:11;;;;;;;4.65;2.10;;;;;;;16.29;100.00;99621.75;4805657;29;20064;-80
2023/07/24 05:21:15;;;;;;;5.07;2.03;;;;;;;16.52;100.00;99611.75;4804784;29;20054;-78
2023/07/24 05:24:19;;;;;;;4.25;1.92;;;;;;;16.76;98.74;99602.59;4804392;29;20069;-79
2023/07/24 05:27:22;;;;;;;6.03;2.05;;;;;;;16.87;98.43;99595.31;4803196;29;20572;-79
2023/07/24 05:30:25;;;;;;;4.45;2.28;;;;;;;16.89;98.36;99603.94;4804687;29;20053;-79
2023/07/24 05:33:31;;;;;;;4.85;2.33;;;;;;;16.91;98.14;99615.19;4804237;29;20077;-80
2023/07/24 05:36:34;;;;;;;3.85;2.22;;;;;;;17.03;97.04;99613.19;4803843;29;20164;-81
2023/07/24 05:39:37;;;;;;;3.92;2.33;;;;;;;17.11;97.39;99618.59;4804171;29;20142;-81
2023/07/24 05:42:43;;;;;;;3.28;1.95;;;;;;;17.19;96.88;99615.22;4804284;29;20512;-80
2023/07/24 05:45:46;;;;;;;4.30;2.13;;;;;;;17.32;96.43;99610.44;4810470;29;20416;-80
2023/07/24 05:48:53;;;;;;;4.32;2.47;;;;;;;17.40;95.75;99602.63;4817436;29;20579;-81
2023/07/24 05:51:56;;;;;;;3.97;2.13;;;;;;;17.41;95.52;99599.00;4814399;29;20077;-81
2023/07/24 05:55:02;;;;;;;3.53;1.92;;;;;;;17.48;94.68;99603.69;4815219;29;20056;-81
2023/07/24 05:58:08;;;;;;;4.05;2.17;;;;;;;17.54;94.16;99601.28;4841692;29;20139;-81
2023/07/24 06:01:12;;;;;;;4.35;2.00;;;;;;;17.55;94.26;99599.47;4831298;29;20092;-80
2023/07/24 06:04:15;;;;;;;3.72;2.20;;;;;;;17.51;95.37;99601.59;4831815;29;20385;-80
2023/07/24 06:07:19;;;;;;;4.70;2.13;;;;;;;17.48;95.79;99601.06;4822786;29;20061;-81
2023/07/24 06:10:23;;;;;;;4.32;2.10;;;;;;;17.50;96.14;99597.28;4822633;29;20053;-81
2023/07/24 06:13:26;;;;;;;4.70;2.38;;;;;;;17.57;95.64;99590.44;4822724;29;20122;-82
2023/07/24 06:16:29;;;;;;;3.13;1.90;;;;;;;17.56;95.89;99593.25;4822072;29;20200;-81
2023/07/24 06:19:32;;;;;;;3.88;2.08;;;;;;;17.54;96.12;99598.66;4822817;29;20061;-80
2023/07/24 06:22:37;;;;;;;5.35;2.10;;;;;;;17.62;96.37;99601.41;4822886;29;20088;-82
2023/07/24 06:25:41;;;;;;;3.53;1.73;;;;;;;17.68;95.56;99600.00;4821967;29;20131;-82
2023/07/24 06:28:45;;;;;;;4.47;2.13;;;;;;;17.73;95.49;99592.44;4828907;29;20081;-78
2023/07/24 06:31:49;;;;;;;3.35;2.08;;;;;;;17.74;95.36;99578.25;4822825;29;20144;-77
2023/07/24 06:34:53;;;;;;;4.07;2.20;;;;;;;17.74;96.06;99570.31;4822680;29;20572;-86
2023/07/24 06:38:17;;;;;;;4.38;2.03;;;;;;;17.81;95.50;99563.47;4822531;29;20119;-85
2023/07/24 06:41:22;;;;;;;3.42;2.13;;;;;;;17.88;95.43;99558.41;4821253;29;20116;-83
2023/07/24 06:44:52;;;;;;;8.45;2.47;;;;;;;17.94;94.91;99555.16;4822907;29;20057;-81
2023/07/24 06:47:56;;;;;;;3.15;1.75;;;;;;;17.94;95.02;99562.28;4820840;29;20164;-78
2023/07/24 06:50:59;;;;;;;3.85;2.63;;;;;;;17.99;94.53;99560.00;4821918;29;20061;-78
2023/07/24 06:54:05;;;;;;;3.50;2.30;;;;;;;18.04;94.92;99565.66;4822216;29;20537;-78
2023/07/24 06:57:09;;;;;;;4.18;2.60;;;;;;;18.10;94.30;99567.72;4822121;29;20540;-72
2023/07/24 07:00:13;;;;;;;6.13;2.85;;;;;;;18.17;93.59;99566.13;4820176;29;20409;-72
2023/07/24 07:03:16;;;;;;;4.00;2.17;;;;;;;18.24;93.87;99564.50;4820990;29;20050;-73
2023/07/24 07:06:19;;;;;;;5.82;2.35;;;;;;;18.20;93.83;99565.81;4821958;29;20057;-81
2023/07/24 07:09:23;;;;;;;5.07;3.10;;;;;;;18.10;94.87;99563.25;4822182;29;20049;-81
2023/07/24 07:12:26;;;;;;;14.20;3.10;;;;;;;18.25;95.82;99544.16;4825277;29;20131;-84
2023/07/24 07:15:33;;;;;;;6.10;3.10;;;;;;;18.30;96.08;99552.50;4829066;29;20133;-85
2023/07/24 07:18:37;;;;;;;7.10;3.45;;;;;;;18.31;96.09;99549.72;4825586;29;20417;-83
2023/07/24 07:21:41;;;;;;;6.25;2.90;;;;;;;18.36;95.25;99547.41;4825634;29;20189;-85
2023/07/24 07:25:20;;;;;;;5.28;3.08;;;;;;;18.42;95.67;99550.44;4825545;29;20091;-79
2023/07/24 07:28:23;;;;;;;7.00;3.28;;;;;;;18.46;95.74;99549.97;4825374;29;20133;-85
2023/07/24 07:31:27;;;;;;;8.98;3.40;;;;;;;18.46;95.88;99546.50;4825244;29;20100;-84
2023/07/24 07:34:35;;;;;;;6.38;3.70;;;;;;;18.59;96.01;99552.19;4825230;29;20101;-84
2023/07/24 07:38:05;;;;;;;4.88;3.08;;;;;;;18.69;96.94;99544.16;4825673;29;20051;-86
2023/07/24 07:41:12;;;;;;;5.57;2.80;;;;;;;18.76;96.83;99553.16;4825490;29;20111;-86
2023/07/24 07:44:39;;;;;;;4.13;3.13;;;;;;;18.83;96.63;99558.69;4824268;29;20065;-89
2023/07/24 07:47:43;;;;;;;4.38;2.88;;;;;;;18.85;96.72;99562.00;4824885;29;20068;-82
2023/07/24 07:50:53;;;;;;;5.55;3.72;;;;;;;18.92;96.69;99553.28;4824830;29;20052;-87
2023/07/24 07:53:58;;;;;;;7.70;3.92;;;;;;;18.87;91.18;99538.84;4825077;29;20096;-83
2023/07/24 07:57:04;;;;;;;5.72;3.20;;;;;;;18.99;89.71;99533.09;4832590;29;20104;-82
2023/07/24 08:00:12;;;;;;;5.90;3.47;;;;;;;19.06;79.30;99530.66;4832294;29;20315;-85
2023/07/24 08:03:17;;;;;;;7.15;3.40;;;;;;;19.19;81.22;99532.84;4830492;29;20045;-86
2023/07/24 08:06:25;;;;;;;5.70;3.83;;;;;;;19.36;73.70;99523.13;4831122;29;20212;-87
2023/07/24 08:09:32;;;;;;;7.28;4.22;;;;;;;19.50;70.21;99522.53;4829351;29;20068;-82
2023/07/24 08:12:35;;;;;;;8.38;4.47;;;;;;;19.76;67.12;99518.97;4825366;29;20139;-82
2023/07/24 08:15:39;;;;;;;7.25;4.43;;;;;;;19.88;66.11;99522.97;4823881;29;20050;-84
2023/07/24 08:18:42;;;;;;;7.78;5.03;;;;;;;20.08;62.58;99529.59;4824510;29;20064;-83
2023/07/24 08:21:46;;;;;;;6.40;4.75;;;;;;;20.25;60.54;99525.09;4824802;29;20053;-83
2023/07/24 08:24:54;;;;;;;8.13;4.55;;;;;;;20.29;61.16;99520.28;4813312;29;20065;-78
2023/07/24 08:27:57;;;;;;;7.03;4.82;;;;;;;20.45;58.95;99506.97;4824690;29;20049;-82
2023/07/24 08:31:04;;;;;;;7.15;4.93;;;;;;;20.51;59.38;99524.94;4823743;29;20099;-80
2023/07/24 08:34:12;;;;;;;8.85;4.93;;;;;;;20.63;57.41;99523.59;4824015;29;20065;-80
2023/07/24 08:41:03;;;;;;;7.73;4.67;;;;;;;20.80;55.73;99515.56;4841547;29;20048;-86
2023/07/24 08:49:42;;;;;;;8.73;4.25;;;;;;;21.00;54.89;99511.53;4843041;29;20129;-88
2023/07/24 08:54:13;;;;;;;7.18;4.55;;;;;;;21.01;54.74;99505.22;4834831;29;20099;-90
2023/07/24 08:57:18;;;;;;;6.90;4.30;;;;;;;21.00;55.65;99506.22;4842137;29;20126;-84
2023/07/24 09:00:27;;;;;;;5.65;3.75;;;;;;;21.11;55.61;99502.34;4831572;29;20056;-84
2023/07/24 09:13:20;;;;;;;9.27;3.28;;;;;;;21.47;55.10;99486.72;4842149;29;20124;-84
2023/07/24 09:16:26;;;;;;;7.18;3.92;;;;;;;21.62;55.01;99483.31;4823924;29;20133;-87
2023/07/24 09:19:31;;;;;;;5.60;3.60;;;;;;;21.73;55.50;99467.78;4827876;29;20048;-76
2023/07/24 09:23:00;;;;;;;5.00;3.45;;;;;;;21.84;54.95;99445.22;4827955;29;20049;-90
2023/07/24 09:32:03;;;;;;;4.78;3.15;;;;;;;22.12;54.59;99428.69;4807682;29;20409;-92
2023/07/24 09:35:25;;;;;;;4.53;3.05;;;;;;;22.07;54.65;99423.88;4802943;29;20401;-82
2023/07/24 09:38:33;;;;;;;5.35;3.33;;;;;;;21.92;55.05;99415.03;4804399;29;20050;-69
2023/07/24 09:41:37;;;;;;;6.50;3.50;;;;;;;22.09;55.02;99423.72;4804320;29;20202;-69
2023/07/24 09:44:41;;;;;;;6.00;4.07;;;;;;;22.14;54.69;99422.16;4804622;29;20062;-69
2023/07/24 09:47:46;;;;;;;5.75;4.05;;;;;;;22.17;54.20;99413.84;4805372;29;20093;-70
2023/07/24 09:50:59;;;;;;;5.38;3.92;;;;;;;22.17;54.32;99410.34;4805318;29;20065;-69
2023/07/24 09:54:12;;;;;;;4.70;3.38;;;;;;;22.24;54.71;99411.28;4804975;29;20112;-69
2023/07/24 09:57:19;;;;;;;5.75;4.05;;;;;;;22.28;54.16;99413.41;4804777;29;20093;-71
2023/07/24 10:00:24;;;;;;;5.13;3.67;;;;;;;22.46;54.13;99413.03;4804994;29;20074;-70
2023/07/24 10:03:31;;;;;;;6.65;3.97;;;;;;;22.58;54.16;99421.38;4803886;29;20097;-71
2023/07/24 10:06:36;;;;;;;5.43;4.03;;;;;;;22.69;52.82;99420.94;4814463;29;20599;-71
2023/07/24 10:09:43;;;;;;;7.40;3.85;;;;;;;22.87;52.15;99420.50;4804854;29;20138;-78
2023/07/24 10:12:48;;;;;;;7.30;4.18;;;;;;;22.84;52.09;99436.88;4804458;29;20123;-81
2023/07/24 10:15:52;;;;;;;6.03;3.78;;;;;;;22.83;51.87;99419.25;4804261;29;20104;-79
2023/07/24 10:18:55;;;;;;;7.57;4.35;;;;;;;22.81;51.71;99401.78;4804497;29;20049;-80
2023/07/24 10:21:58;;;;;;;7.05;4.13;;;;;;;23.09;51.27;99388.59;4822655;29;20064;-80
2023/07/24 10:25:02;;;;;;;7.90;4.32;;;;;;;23.35;50.83;99396.88;4822604;29;20130;-80
2023/07/24 10:28:10;;;;;;;6.18;4.47;;;;;;;23.54;50.61;99397.25;4821814;29;20419;-80
2023/07/24 10:31:28;;;;;;;7.47;4.60;;;;;;;23.61;49.25;99384.78;4822712;29;20057;-81
2023/07/24 10:35:10;;;;;;;7.82;5.05;;;;;;;23.62;48.84;99392.63;4822240;29;20135;-80
2023/07/24 10:38:15;;;;;;;8.15;3.85;;;;;;;23.76;48.47;99403.44;4820848;29;20085;-80
2023/07/24 10:41:19;;;;;;;7.28;4.38;;;;;;;23.75;48.30;99405.28;4821773;29;20048;-80
2023/07/24 10:44:31;;;;;;;9.65;4.88;;;;;;;23.62;48.50;99405.13;4822513;29;20095;-80
2023/07/24 10:47:35;;;;;;;7.10;4.30;;;;;;;23.69;49.39;99395.38;4825790;29;20416;-81
2023/07/24 10:50:43;;;;;;;5.53;3.97;;;;;;;23.74;48.65;99397.44;4824773;29;20057;-80
2023/07/24 10:53:49;;;;;;;6.25;4.13;;;;;;;23.71;48.83;99387.16;4814366;29;20057;-81
2023/07/24 10:57:02;;;;;;;6.63;4.40;;;;;;;23.71;48.67;99382.66;4824685;29;20053;-80
2023/07/24 11:00:08;;;;;;;5.63;4.10;;;;;;;23.69;48.95;99382.03;4825914;29;20068;-81
2023/07/24 11:03:15;;;;;;;9.73;4.95;;;;;;;23.50;49.46;99377.31;4824981;29;20423;-81
2023/07/24 11:06:22;;;;;;;7.25;4.50;;;;;;;23.64;49.61;99376.41;4823407;29;20148;-81
2023/07/24 11:09:37;;;;;;;6.22;4.20;;;;;;;23.73;49.06;99388.63;4825539;29;20121;-81
2023/07/24 11:12:41;;;;;;;6.50;4.03;;;;;;;23.80;48.88;99373.50;4825831;29;20069;-81
2023/07/24 11:15:47;;;;;;;7.53;4.63;;;;;;;24.01;48.54;99371.78;4825567;29;20134;-75
2023/07/24 11:18:52;;;;;;;6.97;4.65;;;;;;;24.09;47.98;99367.13;4825278;29;20065;-78
2023/07/24 11:21:55;;;;;;;6.57;4.55;;;;;;;24.19;48.08;99366.78;4825308;29;20420;-75
2023/07/24 11:24:59;;;;;;;8.57;4.93;;;;;;;24.03;48.30;99359.09;4825398;29;20065;-79
2023/07/24 11:28:05;;;;;;;7.13;4.90;;;;;;;23.86;48.20;99353.19;4825489;29;20144;-78
2023/07/24 11:31:12;;;;;;;7.22;4.10;;;;;;;23.79;49.74;99337.13;4825501;29;20065;-74
2023/07/24 11:34:15;;;;;;;6.43;4.55;;;;;;;23.93;49.24;99334.56;4825141;29;20140;-77
2023/07/24 11:37:21;;;;;;;8.65;5.25;;;;;;;23.77;48.49;99333.84;4824914;29;20524;-77
2023/07/24 11:40:32;;;;;;;6.22;4.88;;;;;;;23.67;48.79;99338.66;4824994;29;20497;-78
2023/07/24 11:43:35;;;;;;;5.35;4.00;;;;;;;23.73;48.22;99337.91;4824408;29;20049;-81
2023/07/24 11:46:39;;;;;;;6.55;3.75;;;;;;;23.76;48.01;99320.69;4825194;29;20130;-79
2023/07/24 11:49:47;;;;;;;5.68;4.03;;;;;;;23.93;48.18;99324.72;4824936;29;20419;-80
2023/07/24 11:52:52;;;;;;;7.05;4.30;;;;;;;24.06;47.37;99313.28;4824842;29;20054;-75
2023/07/24 11:55:59;;;;;;;5.97;4.25;;;;;;;24.18;47.71;99309.03;4812653;29;20536;-74
2023/07/24 11:59:14;;;;;;;7.75;5.72;;;;;;;24.48;46.49;99309.63;4806403;29;20146;-75
2023/07/24 12:02:18;;;;;;;6.03;3.55;;;;;;;24.69;46.48;99294.47;4806763;29;20053;-74
2023/07/24 12:05:22;;;;;;;6.07;3.78;;;;;;;24.68;46.23;99282.13;4806714;29;20050;-79
2023/07/24 12:09:07;;;;;;;7.90;3.88;;;;;;;24.45;47.39;99280.63;4806614;29;20555;-80
2023/07/24 12:12:16;;;;;;;5.65;3.40;;;;;;;24.34;48.16;99275.81;4806676;29;20066;-76
2023/07/24 12:15:19;;;;;;;4.93;3.65;;;;;;;24.13;48.55;99266.09;4805812;29;20412;-76
2023/07/24 12:18:25;;;;;;;6.68;3.25;;;;;;;24.08;49.26;99276.53;4806671;29;20142;-75
2023/07/24 12:21:28;;;;;;;4.75;3.28;;;;;;;23.96;49.61;99278.09;4806528;29;20604;-75
2023/07/24 12:24:32;;;;;;;8.95;3.10;;;;;;;23.83;50.24;99262.81;4806091;29;20123;-75
2023/07/24 12:27:35;;;;;;;5.88;3.00;;;;;;;23.79;50.41;99261.59;4806041;29;20038;-76
2023/07/24 12:30:39;;;;;;;4.97;2.80;;;;;;;23.97;50.30;99261.06;4806083;29;20057;-75
2023/07/24 12:33:42;;;;;;;5.38;2.75;;;;;;;24.02;51.31;99264.78;4805890;29;20500;-76
2023/07/24 12:36:47;;;;;;;6.43;3.55;;;;;;;24.07;50.50;99272.22;4805871;29;20070;-75
2023/07/24 12:39:52;;;;;;;4.13;2.92;;;;;;;24.07;50.77;99264.19;4806190;29;20463;-75
2023/07/24 12:42:55;;;;;;;4.32;2.88;;;;;;;23.87;50.32;99264.94;4804976;29;20069;-75
2023/07/24 12:45:58;;;;;;;6.25;3.25;;;;;;;23.76;50.69;99262.78;4805802;29;20069;-78
2023/07/24 12:49:01;;;;;;;5.75;3.03;;;;;;;23.76;50.96;99267.31;4805899;29;20158;-84
2023/07/24 12:52:07;;;;;;;6.15;3.38;;;;;;;23.65;51.33;99266.00;4805910;29;20072;-85
2023/07/24 12:55:16;;;;;;;6.05;2.65;;;;;;;23.59;53.28;99282.78;4811088;29;20152;-85
2023/07/24 12:58:20;;;;;;;9.07;3.40;;;;;;;23.34;59.71;99304.53;4823861;29;20076;-81
2023/07/24 13:01:27;;;;;;;11.80;3.90;;;;;;;22.40;66.48;99311.72;4812270;29;20070;-80
2023/07/24 13:04:30;;;;;;;6.55;3.08;;;;;;;22.37;67.48;99312.94;4823105;29;20056;-83
2023/07/24 13:07:36;;;;;;;6.25;3.33;;;;;;;22.43;70.04;99306.03;4823761;29;20054;-82
2023/07/24 13:11:10;;;;;;;4.70;2.97;;;;;;;22.29;70.41;99305.03;4824307;29;20520;-84
2023/07/24 13:14:44;;;;;;;6.97;4.07;;;;;;;21.90;73.69;99324.75;4825662;29;20057;-82
2023/07/24 13:17:56;;;;;;;9.80;3.25;;;;;;;22.00;73.23;99317.31;4823459;29;20119;-80
2023/07/24 13:21:06;;;;;;;5.50;3.20;;;;;;;22.05;74.41;99316.78;4824500;29;20231;-83
2023/07/24 13:24:11;;;;;;;6.72;3.38;;;;;;;22.27;72.08;99307.06;4824555;29;20153;-82
2023/07/24 13:27:15;;;;;;;6.00;3.35;;;;;;;22.35;71.90;99303.47;4828255;29;20620;-83
2023/07/24 13:30:21;;;;;;;5.18;3.38;;;;;;;22.69;71.56;99297.53;4830997;29;20448;-83
2023/07/24 13:33:25;;;;;;;4.97;2.92;;;;;;;23.26;68.99;99299.34;4831359;29;20050;-83
2023/07/24 13:36:37;;;;;;;5.38;2.78;;;;;;;23.57;65.52;99304.31;4832533;29;20045;-82
2023/07/24 13:39:41;;;;;;;;;;;;;;;23.80;63.15;99290.75;4831126;29;20498;-82
2023/07/24 13:42:51;;;;;;;4.05;2.67;;;;;;;24.54;60.58;99289.28;4832994;29;20009;-81
2023/07/24 13:45:57;;;;;;;3.13;2.15;;;;;;;24.28;60.38;99281.94;4828928;29;20523;-82
2023/07/24 13:49:03;;;;;;;3.65;2.35;;;;;;;23.83;61.41;99284.19;4831576;29;20492;-83
2023/07/24 13:52:12;;;;;;;5.53;2.10;;;;;;;23.65;60.87;99282.00;4832448;29;20057;-81
2023/07/24 13:55:17;;;;;;;4.57;2.20;;;;;;;23.61;60.30;99264.72;4823686;29;20058;-81
2023/07/24 13:58:20;;;;;;;3.65;2.13;;;;;;;24.41;58.80;99249.13;4809301;29;20465;-81
2023/07/24 14:01:25;;;;;;;3.97;1.83;;;;;;;24.90;56.08;99248.03;4814289;29;20503;-83
2023/07/24 14:04:39;;;;;;;3.45;2.22;;;;;;;25.74;53.84;99234.00;4813910;29;20073;-80
2023/07/24 14:07:50;;;;;;;3.42;1.83;;;;;;;26.24;50.78;99214.69;4815222;29;20049;-82
2023/07/24 14:10:53;;;;;;;5.57;1.63;;;;;;;26.11;51.07;99218.25;4814235;29;20045;-80
2023/07/24 14:13:57;;;;;;;2.70;1.00;;;;;;;26.25;49.04;99225.19;4814695;29;20053;-78
2023/07/24 14:17:02;;;;;;;1.77;1.05;;;;;;;27.28;46.97;99216.91;4813709;29;20441;-79
2023/07/24 14:20:06;;;;;;;1.85;0.85;;;;;;;27.59;46.06;99210.59;4814147;29;20153;-80
2023/07/24 14:23:10;;;;;;;4.50;0.70;;;;;;;27.39;44.72;99236.81;4813705;29;20049;-80
2023/07/24 14:26:13;;;;;;;2.33;0.77;;;;;;;28.19;42.00;99235.97;4812068;29;20461;-83
2023/07/24 14:29:23;;;;;;;1.48;0.60;;;;;;;28.20;42.80;99232.22;4813763;29;20057;-86
2023/07/24 14:32:29;;;;;;;3.25;0.93;;;;;;;28.36;41.79;99215.47;4811067;29;20137;-85
2023/07/24 14:35:33;;;;;;;2.58;0.63;;;;;;;30.86;37.72;99203.25;4814123;29;20049;-83
2023/07/24 14:39:05;;;;;;;2.20;0.68;;;;;;;33.30;33.55;99190.94;4814134;29;20054;-89
2023/07/24 14:42:10;;;;;;;2.13;0.75;;;;;;;32.64;33.59;99200.19;4813211;29;20053;-81
2023/07/24 14:45:18;;;;;;;1.80;0.80;;;;;;;31.03;35.75;99202.16;4811251;29;20096;-89
2023/07/24 14:48:57;;;;;;;2.45;0.80;;;;;;;33.47;32.48;99210.56;4810408;29;20042;-85
2023/07/24 14:52:10;;;;;;;3.00;0.70;;;;;;;32.47;33.65;99204.06;4810042;29;20128;-79
2023/07/24 14:55:20;;;;;;;7.53;0.85;;;;;;;32.22;32.40;99212.72;4814935;29;20131;-84
2023/07/24 14:58:27;;;;;;;3.70;0.88;;;;;;;31.43;33.43;99184.13;4831570;29;20129;-81
2023/07/24 15:01:31;;;;;;;1.50;0.70;;;;;;;33.08;31.34;99177.53;4830679;29;20081;-80
2023/07/24 15:04:34;;;;;;;2.25;0.70;;;;;;;31.04;34.14;99174.09;4829531;29;20085;-81
2023/07/24 15:07:38;;;;;;;1.33;0.60;;;;;;;30.32;35.33;99166.69;4829356;29;20055;-81
2023/07/24 15:11:06;;;;;;;;;;;;;;;;;;;;;